sensor_id;sensor_type;location;lat;lon;timestamp;P1;durP1;ratioP1;P2;durP2;ratioP2
3817;SDS011;1924;48.078;11.516;2023-02-01T00:00:55;22.20;;;0.70;;
3817;SDS011;1924;48.078;11.516;2023-02-01T00:03:22;22.20;;;0.70;;
3817;SDS011;1924;48.078;11.516;2023-02-01T00:05:54;22.27;;;0.70;;
3817;SDS011;1924;48.078;11.516;2023-02-01T00:08:22;22.30;;;0.70;;
3817;SDS011;1924;48.078;11.516;2023-02-01T00:10:48;22.20;;;0.70;;
3817;SDS011;1924;48.078;11.516;2023-02-01T00:13:23;22.37;;;0.70;;
3817;SDS011;1924;48.078;11.516;2023-02-01T00:15:49;22.30;;;0.70;;
3817;SDS011;1924;48.078;11.516;2023-02-01T00:18:17;22.30;;;0.70;;
3817;SDS011;1924;48.078;11.516;2023-02-01T00:20:45;22.27;;;0.70;;
3817;SDS011;1924;48.078;11.516;2023-02-01T00:23:12;22.30;;;0.70;;
3817;SDS011;1924;48.078;11.516;2023-02-01T00:25:38;22.27;;;0.70;;
3817;SDS011;1924;48.078;11.516;2023-02-01T00:28:05;22.10;;;0.70;;
3817;SDS011;1924;48.078;11.516;2023-02-01T00:30:32;22.30;;;0.70;;
3817;SDS011;1924;48.078;11.516;2023-02-01T00:32:59;22.30;;;0.70;;
3817;SDS011;1924;48.078;11.516;2023-02-01T00:35:27;22.20;;;0.70;;
3817;SDS011;1924;48.078;11.516;2023-02-01T00:37:54;22.20;;;0.70;;
3817;SDS011;1924;48.078;11.516;2023-02-01T00:40:23;22.20;;;0.70;;
3817;SDS011;1924;48.078;11.516;2023-02-01T00:42:50;22.20;;;0.70;;
3817;SDS011;1924;48.078;11.516;2023-02-01T00:45:17;22.40;;;0.70;;
3817;SDS011;1924;48.078;11.516;2023-02-01T00:47:43;22.43;;;0.70;;
3817;SDS011;1924;48.078;11.516;2023-02-01T00:50:10;22.40;;;0.70;;
3817;SDS011;1924;48.078;11.516;2023-02-01T00:52:38;22.40;;;0.70;;
3817;SDS011;1924;48.078;11.516;2023-02-01T00:55:05;22.30;;;0.70;;
3817;SDS011;1924;48.078;11.516;2023-02-01T00:57:32;22.37;;;0.70;;
3817;SDS011;1924;48.078;11.516;2023-02-01T00:59:59;22.30;;;0.70;;
3817;SDS011;1924;48.078;11.516;2023-02-01T01:02:26;22.17;;;0.70;;
3817;SDS011;1924;48.078;11.516;2023-02-01T01:04:53;22.33;;;0.70;;
3817;SDS011;1924;48.078;11.516;2023-02-01T01:07:20;22.30;;;0.70;;
3817;SDS011;1924;48.078;11.516;2023-02-01T01:09:48;22.20;;;0.70;;
3817;SDS011;1924;48.078;11.516;2023-02-01T01:12:14;22.30;;;0.70;;
3817;SDS011;1924;48.078;11.516;2023-02-01T01:14:41;22.10;;;0.70;;
3817;SDS011;1924;48.078;11.516;2023-02-01T01:17:08;22.37;;;0.70;;
3817;SDS011;1924;48.078;11.516;2023-02-01T01:19:35;22.40;;;0.70;;
3817;SDS011;1924;48.078;11.516;2023-02-01T01:22:01;22.17;;;0.70;;
3817;SDS011;1924;48.078;11.516;2023-02-01T01:24:28;22.00;;;0.70;;
3817;SDS011;1924;48.078;11.516;2023-02-01T01:26:56;22.23;;;0.70;;
3817;SDS011;1924;48.078;11.516;2023-02-01T01:29:23;22.10;;;0.70;;
3817;SDS011;1924;48.078;11.516;2023-02-01T01:31:49;22.20;;;0.70;;
3817;SDS011;1924;48.078;11.516;2023-02-01T01:34:16;22.10;;;0.70;;
3817;SDS011;1924;48.078;11.516;2023-02-01T01:36:43;22.30;;;0.70;;
3817;SDS011;1924;48.078;11.516;2023-02-01T01:39:09;22.20;;;0.70;;
3817;SDS011;1924;48.078;11.516;2023-02-01T01:41:36;22.17;;;0.70;;
3817;SDS011;1924;48.078;11.516;2023-02-01T01:44:05;22.20;;;0.70;;
3817;SDS011;1924;48.078;11.516;2023-02-01T05:01:33;22.20;;;0.70;;
3817;SDS011;1924;48.078;11.516;2023-02-01T05:03:59;22.30;;;0.70;;
3817;SDS011;1924;48.078;11.516;2023-02-01T05:06:26;22.47;;;0.70;;
3817;SDS011;1924;48.078;11.516;2023-02-01T05:08:52;22.40;;;0.70;;
3817;SDS011;1924;48.078;11.516;2023-02-01T05:11:19;22.40;;;0.70;;
3817;SDS011;1924;48.078;11.516;2023-02-01T05:14:03;22.47;;;0.70;;
3817;SDS011;1924;48.078;11.516;2023-02-01T05:16:30;22.40;;;0.70;;
3817;SDS011;1924;48.078;11.516;2023-02-01T05:18:58;22.50;;;0.70;;
3817;SDS011;1924;48.078;11.516;2023-02-01T05:21:25;22.57;;;0.70;;
3817;SDS011;1924;48.078;11.516;2023-02-01T05:23:52;22.50;;;0.70;;
3817;SDS011;1924;48.078;11.516;2023-02-01T05:26:38;22.40;;;0.70;;
3817;SDS011;1924;48.078;11.516;2023-02-01T05:29:05;22.50;;;0.70;;
3817;SDS011;1924;48.078;11.516;2023-02-01T05:31:32;22.50;;;0.70;;
3817;SDS011;1924;48.078;11.516;2023-02-01T05:34:01;22.60;;;0.70;;
3817;SDS011;1924;48.078;11.516;2023-02-01T05:36:28;22.50;;;0.70;;
3817;SDS011;1924;48.078;11.516;2023-02-01T05:38:55;22.40;;;0.70;;
3817;SDS011;1924;48.078;11.516;2023-02-01T05:41:21;22.50;;;0.70;;
3817;SDS011;1924;48.078;11.516;2023-02-01T05:43:48;22.50;;;0.70;;
3817;SDS011;1924;48.078;11.516;2023-02-01T05:46:15;22.57;;;0.70;;
3817;SDS011;1924;48.078;11.516;2023-02-01T05:48:42;22.30;;;0.70;;
3817;SDS011;1924;48.078;11.516;2023-02-01T05:51:10;22.50;;;0.70;;
3817;SDS011;1924;48.078;11.516;2023-02-01T05:53:37;22.40;;;0.70;;
3817;SDS011;1924;48.078;11.516;2023-02-01T05:56:04;22.50;;;0.70;;
3817;SDS011;1924;48.078;11.516;2023-02-01T05:58:32;22.50;;;0.70;;
3817;SDS011;1924;48.078;11.516;2023-02-01T06:00:58;22.60;;;0.70;;
3817;SDS011;1924;48.078;11.516;2023-02-01T06:03:25;22.53;;;0.70;;
3817;SDS011;1924;48.078;11.516;2023-02-01T06:05:52;22.50;;;0.70;;
3817;SDS011;1924;48.078;11.516;2023-02-01T06:08:20;22.53;;;0.70;;
3817;SDS011;1924;48.078;11.516;2023-02-01T06:10:49;22.57;;;0.70;;
3817;SDS011;1924;48.078;11.516;2023-02-01T06:13:16;22.50;;;0.70;;
3817;SDS011;1924;48.078;11.516;2023-02-01T06:15:45;22.47;;;0.70;;
3817;SDS011;1924;48.078;11.516;2023-02-01T06:18:11;22.50;;;0.70;;
3817;SDS011;1924;48.078;11.516;2023-02-01T06:20:40;22.40;;;0.70;;
3817;SDS011;1924;48.078;11.516;2023-02-01T06:23:07;22.40;;;0.70;;
3817;SDS011;1924;48.078;11.516;2023-02-01T06:25:35;22.37;;;0.70;;
3817;SDS011;1924;48.078;11.516;2023-02-01T06:28:02;22.20;;;0.70;;
3817;SDS011;1924;48.078;11.516;2023-02-01T06:30:30;22.37;;;0.70;;
3817;SDS011;1924;48.078;11.516;2023-02-01T06:32:57;22.40;;;0.70;;
3817;SDS011;1924;48.078;11.516;2023-02-01T06:35:24;22.30;;;0.70;;
3817;SDS011;1924;48.078;11.516;2023-02-01T06:37:51;22.30;;;0.70;;
3817;SDS011;1924;48.078;11.516;2023-02-01T06:40:17;22.30;;;0.70;;
3817;SDS011;1924;48.078;11.516;2023-02-01T06:42:46;22.40;;;0.70;;
3817;SDS011;1924;48.078;11.516;2023-02-01T06:45:14;22.30;;;0.70;;
3817;SDS011;1924;48.078;11.516;2023-02-01T06:47:41;22.30;;;0.70;;
3817;SDS011;1924;48.078;11.516;2023-02-01T06:50:08;22.30;;;0.70;;
3817;SDS011;1924;48.078;11.516;2023-02-01T06:52:36;22.40;;;0.70;;
3817;SDS011;1924;48.078;11.516;2023-02-01T06:55:02;22.37;;;0.70;;
3817;SDS011;1924;48.078;11.516;2023-02-01T06:57:30;22.30;;;0.70;;
3817;SDS011;1924;48.078;11.516;2023-02-01T06:59:59;22.30;;;0.70;;
3817;SDS011;1924;48.078;11.516;2023-02-01T07:02:26;22.40;;;0.70;;
3817;SDS011;1924;48.078;11.516;2023-02-01T07:04:52;22.40;;;0.70;;
3817;SDS011;1924;48.078;11.516;2023-02-01T07:07:20;22.30;;;0.70;;
3817;SDS011;1924;48.078;11.516;2023-02-01T07:09:47;22.30;;;0.70;;
3817;SDS011;1924;48.078;11.516;2023-02-01T07:12:14;22.30;;;0.70;;
3817;SDS011;1924;48.078;11.516;2023-02-01T07:14:41;22.40;;;0.70;;
3817;SDS011;1924;48.078;11.516;2023-02-01T07:17:09;22.20;;;0.70;;
3817;SDS011;1924;48.078;11.516;2023-02-01T07:19:35;22.30;;;0.70;;
3817;SDS011;1924;48.078;11.516;2023-02-01T07:22:02;22.30;;;0.70;;
3817;SDS011;1924;48.078;11.516;2023-02-01T07:24:29;22.40;;;0.70;;
3817;SDS011;1924;48.078;11.516;2023-02-01T07:26:56;22.40;;;0.70;;
3817;SDS011;1924;48.078;11.516;2023-02-01T07:29:23;22.30;;;0.70;;
3817;SDS011;1924;48.078;11.516;2023-02-01T07:31:49;22.50;;;0.70;;
3817;SDS011;1924;48.078;11.516;2023-02-01T07:34:17;22.37;;;0.70;;
3817;SDS011;1924;48.078;11.516;2023-02-01T07:36:44;22.40;;;0.70;;
3817;SDS011;1924;48.078;11.516;2023-02-01T07:39:11;22.40;;;0.70;;
3817;SDS011;1924;48.078;11.516;2023-02-01T07:41:37;22.27;;;0.70;;
3817;SDS011;1924;48.078;11.516;2023-02-01T07:44:04;22.40;;;0.70;;
3817;SDS011;1924;48.078;11.516;2023-02-01T07:46:31;22.40;;;0.70;;
3817;SDS011;1924;48.078;11.516;2023-02-01T07:48:57;22.40;;;0.70;;
3817;SDS011;1924;48.078;11.516;2023-02-01T07:51:25;22.43;;;0.70;;
3817;SDS011;1924;48.078;11.516;2023-02-01T07:53:52;22.30;;;0.70;;
3817;SDS011;1924;48.078;11.516;2023-02-01T07:56:19;22.20;;;0.70;;
3817;SDS011;1924;48.078;11.516;2023-02-01T07:58:48;22.40;;;0.70;;
3817;SDS011;1924;48.078;11.516;2023-02-01T08:01:15;22.40;;;0.70;;
3817;SDS011;1924;48.078;11.516;2023-02-01T08:03:46;22.40;;;0.70;;
3817;SDS011;1924;48.078;11.516;2023-02-01T08:06:13;22.47;;;0.70;;
3817;SDS011;1924;48.078;11.516;2023-02-01T08:08:41;22.50;;;0.70;;
3817;SDS011;1924;48.078;11.516;2023-02-01T08:11:10;22.47;;;0.70;;
3817;SDS011;1924;48.078;11.516;2023-02-01T08:13:36;22.37;;;0.70;;
3817;SDS011;1924;48.078;11.516;2023-02-01T08:16:05;22.40;;;0.70;;
3817;SDS011;1924;48.078;11.516;2023-02-01T08:18:33;22.40;;;0.70;;
3817;SDS011;1924;48.078;11.516;2023-02-01T08:21:02;22.47;;;0.70;;
3817;SDS011;1924;48.078;11.516;2023-02-01T08:23:30;22.40;;;0.70;;
3817;SDS011;1924;48.078;11.516;2023-02-01T08:26:04;22.40;;;0.70;;
3817;SDS011;1924;48.078;11.516;2023-02-01T08:28:32;22.40;;;0.70;;
3817;SDS011;1924;48.078;11.516;2023-02-01T08:31:03;22.50;;;0.70;;
3817;SDS011;1924;48.078;11.516;2023-02-01T08:33:30;22.37;;;0.70;;
3817;SDS011;1924;48.078;11.516;2023-02-01T08:35:57;22.40;;;0.70;;
3817;SDS011;1924;48.078;11.516;2023-02-01T08:38:23;22.40;;;0.70;;
3817;SDS011;1924;48.078;11.516;2023-02-01T08:40:50;22.40;;;0.70;;
3817;SDS011;1924;48.078;11.516;2023-02-01T08:43:19;22.40;;;0.70;;
3817;SDS011;1924;48.078;11.516;2023-02-01T08:45:46;22.40;;;0.70;;
3817;SDS011;1924;48.078;11.516;2023-02-01T08:48:12;22.60;;;0.70;;
3817;SDS011;1924;48.078;11.516;2023-02-01T08:50:39;22.40;;;0.70;;
3817;SDS011;1924;48.078;11.516;2023-02-01T08:53:06;22.47;;;0.70;;
3817;SDS011;1924;48.078;11.516;2023-02-01T08:55:32;22.50;;;0.70;;
3817;SDS011;1924;48.078;11.516;2023-02-01T08:57:59;22.30;;;0.70;;
3817;SDS011;1924;48.078;11.516;2023-02-01T09:00:27;22.63;;;0.70;;
3817;SDS011;1924;48.078;11.516;2023-02-01T09:02:54;22.30;;;0.70;;
3817;SDS011;1924;48.078;11.516;2023-02-01T09:05:21;22.60;;;0.70;;
3817;SDS011;1924;48.078;11.516;2023-02-01T09:07:51;22.60;;;0.70;;
3817;SDS011;1924;48.078;11.516;2023-02-01T09:10:18;22.60;;;0.70;;
3817;SDS011;1924;48.078;11.516;2023-02-01T09:12:45;22.70;;;0.70;;
3817;SDS011;1924;48.078;11.516;2023-02-01T09:15:12;22.67;;;0.70;;
3817;SDS011;1924;48.078;11.516;2023-02-01T09:17:40;22.80;;;0.70;;
3817;SDS011;1924;48.078;11.516;2023-02-01T09:20:08;22.63;;;0.70;;
3817;SDS011;1924;48.078;11.516;2023-02-01T09:22:36;22.70;;;0.70;;
3817;SDS011;1924;48.078;11.516;2023-02-01T09:25:03;22.70;;;0.70;;
3817;SDS011;1924;48.078;11.516;2023-02-01T09:27:30;22.80;;;0.70;;
3817;SDS011;1924;48.078;11.516;2023-02-01T09:29:57;22.80;;;0.70;;
3817;SDS011;1924;48.078;11.516;2023-02-01T09:32:24;22.77;;;0.70;;
3817;SDS011;1924;48.078;11.516;2023-02-01T09:34:52;22.90;;;0.70;;
3817;SDS011;1924;48.078;11.516;2023-02-01T09:37:19;22.90;;;0.70;;
3817;SDS011;1924;48.078;11.516;2023-02-01T09:39:46;22.70;;;0.70;;
3817;SDS011;1924;48.078;11.516;2023-02-01T09:42:19;22.87;;;0.70;;
3817;SDS011;1924;48.078;11.516;2023-02-01T09:47:45;22.90;;;0.70;;
3817;SDS011;1924;48.078;11.516;2023-02-01T09:50:18;23.10;;;0.70;;
3817;SDS011;1924;48.078;11.516;2023-02-01T09:52:48;22.90;;;0.70;;
3817;SDS011;1924;48.078;11.516;2023-02-01T09:55:20;23.00;;;0.70;;
3817;SDS011;1924;48.078;11.516;2023-02-01T09:57:53;23.10;;;0.70;;
3817;SDS011;1924;48.078;11.516;2023-02-01T10:00:24;23.00;;;0.70;;
3817;SDS011;1924;48.078;11.516;2023-02-01T10:02:55;22.90;;;0.70;;
3817;SDS011;1924;48.078;11.516;2023-02-01T10:05:27;23.10;;;0.70;;
3817;SDS011;1924;48.078;11.516;2023-02-01T10:08:17;23.00;;;0.70;;
3817;SDS011;1924;48.078;11.516;2023-02-01T10:10:52;22.90;;;0.70;;
3817;SDS011;1924;48.078;11.516;2023-02-01T10:13:31;23.00;;;0.70;;
3817;SDS011;1924;48.078;11.516;2023-02-01T10:16:11;23.00;;;0.70;;
3817;SDS011;1924;48.078;11.516;2023-02-01T10:18:52;22.90;;;0.70;;
3817;SDS011;1924;48.078;11.516;2023-02-01T10:21:39;23.03;;;0.70;;
3817;SDS011;1924;48.078;11.516;2023-02-01T10:24:16;23.07;;;0.70;;
3817;SDS011;1924;48.078;11.516;2023-02-01T10:26:51;22.90;;;0.70;;
3817;SDS011;1924;48.078;11.516;2023-02-01T10:29:24;22.90;;;0.70;;
3817;SDS011;1924;48.078;11.516;2023-02-01T10:31:57;22.90;;;0.70;;
3817;SDS011;1924;48.078;11.516;2023-02-01T10:34:25;23.10;;;0.70;;
3817;SDS011;1924;48.078;11.516;2023-02-01T10:36:55;23.00;;;0.70;;
3817;SDS011;1924;48.078;11.516;2023-02-01T10:39:25;22.90;;;0.70;;
3817;SDS011;1924;48.078;11.516;2023-02-01T10:41:53;23.00;;;0.70;;
3817;SDS011;1924;48.078;11.516;2023-02-01T10:44:22;23.00;;;0.70;;
3817;SDS011;1924;48.078;11.516;2023-02-01T10:46:52;23.10;;;0.70;;
3817;SDS011;1924;48.078;11.516;2023-02-01T10:49:20;23.10;;;0.70;;
3817;SDS011;1924;48.078;11.516;2023-02-01T10:51:53;22.90;;;0.70;;
3817;SDS011;1924;48.078;11.516;2023-02-01T10:54:31;23.10;;;0.70;;
3817;SDS011;1924;48.078;11.516;2023-02-01T10:57:00;23.00;;;0.70;;
3817;SDS011;1924;48.078;11.516;2023-02-01T10:59:28;23.10;;;0.70;;
3817;SDS011;1924;48.078;11.516;2023-02-01T11:01:58;23.03;;;0.70;;
3817;SDS011;1924;48.078;11.516;2023-02-01T11:04:26;22.90;;;0.70;;
3817;SDS011;1924;48.078;11.516;2023-02-01T11:07:05;23.10;;;0.70;;
3817;SDS011;1924;48.078;11.516;2023-02-01T11:09:35;23.00;;;0.70;;
3817;SDS011;1924;48.078;11.516;2023-02-01T11:12:27;22.90;;;0.70;;
3817;SDS011;1924;48.078;11.516;2023-02-01T11:14:59;22.90;;;0.70;;
3817;SDS011;1924;48.078;11.516;2023-02-01T11:17:32;22.93;;;0.70;;
3817;SDS011;1924;48.078;11.516;2023-02-01T11:20:02;23.00;;;0.70;;
3817;SDS011;1924;48.078;11.516;2023-02-01T11:22:33;23.00;;;0.70;;
3817;SDS011;1924;48.078;11.516;2023-02-01T11:24:59;22.97;;;0.70;;
3817;SDS011;1924;48.078;11.516;2023-02-01T11:27:33;22.90;;;0.70;;
3817;SDS011;1924;48.078;11.516;2023-02-01T11:30:00;23.07;;;0.70;;
3817;SDS011;1924;48.078;11.516;2023-02-01T11:32:29;23.07;;;0.70;;
3817;SDS011;1924;48.078;11.516;2023-02-01T11:34:57;23.00;;;0.70;;
3817;SDS011;1924;48.078;11.516;2023-02-01T11:37:28;23.10;;;0.70;;
3817;SDS011;1924;48.078;11.516;2023-02-01T11:39:58;23.10;;;0.70;;
3817;SDS011;1924;48.078;11.516;2023-02-01T11:42:27;22.90;;;0.70;;
3817;SDS011;1924;48.078;11.516;2023-02-01T11:45:16;23.10;;;0.70;;
3817;SDS011;1924;48.078;11.516;2023-02-01T11:47:45;23.00;;;0.70;;
3817;SDS011;1924;48.078;11.516;2023-02-01T11:50:14;22.90;;;0.70;;
3817;SDS011;1924;48.078;11.516;2023-02-01T11:53:02;23.10;;;0.70;;
3817;SDS011;1924;48.078;11.516;2023-02-01T11:55:52;22.97;;;0.70;;
3817;SDS011;1924;48.078;11.516;2023-02-01T11:58:28;22.90;;;0.70;;
3817;SDS011;1924;48.078;11.516;2023-02-01T12:01:08;22.90;;;0.70;;
3817;SDS011;1924;48.078;11.516;2023-02-01T12:06:47;22.80;;;0.70;;
3817;SDS011;1924;48.078;11.516;2023-02-01T12:09:29;22.80;;;0.70;;
3817;SDS011;1924;48.078;11.516;2023-02-01T12:12:12;22.80;;;0.70;;
3817;SDS011;1924;48.078;11.516;2023-02-01T12:15:02;22.60;;;0.70;;
3817;SDS011;1924;48.078;11.516;2023-02-01T12:17:51;22.80;;;0.70;;
3817;SDS011;1924;48.078;11.516;2023-02-01T12:20:31;22.80;;;0.70;;
3817;SDS011;1924;48.078;11.516;2023-02-01T12:23:17;22.77;;;0.70;;
3817;SDS011;1924;48.078;11.516;2023-02-01T12:25:59;22.73;;;0.70;;
3817;SDS011;1924;48.078;11.516;2023-02-01T12:28:42;22.80;;;0.80;;
3817;SDS011;1924;48.078;11.516;2023-02-01T12:31:36;22.70;;;0.70;;
3817;SDS011;1924;48.078;11.516;2023-02-01T12:34:22;22.83;;;0.70;;
3817;SDS011;1924;48.078;11.516;2023-02-01T12:37:02;22.80;;;0.70;;
3817;SDS011;1924;48.078;11.516;2023-02-01T12:39:39;22.87;;;0.70;;
3817;SDS011;1924;48.078;11.516;2023-02-01T12:42:09;22.77;;;0.70;;
3817;SDS011;1924;48.078;11.516;2023-02-01T12:44:45;22.77;;;0.70;;
3817;SDS011;1924;48.078;11.516;2023-02-01T12:47:18;22.70;;;0.70;;
3817;SDS011;1924;48.078;11.516;2023-02-01T12:49:53;22.83;;;0.70;;
3817;SDS011;1924;48.078;11.516;2023-02-01T12:52:26;22.70;;;0.70;;
3817;SDS011;1924;48.078;11.516;2023-02-01T12:55:01;22.70;;;0.70;;
3817;SDS011;1924;48.078;11.516;2023-02-01T12:57:33;22.70;;;0.70;;
3817;SDS011;1924;48.078;11.516;2023-02-01T13:00:13;22.70;;;0.70;;
3817;SDS011;1924;48.078;11.516;2023-02-01T13:02:49;22.70;;;0.70;;
3817;SDS011;1924;48.078;11.516;2023-02-01T13:05:20;22.80;;;0.70;;
3817;SDS011;1924;48.078;11.516;2023-02-01T13:07:51;22.70;;;0.70;;
3817;SDS011;1924;48.078;11.516;2023-02-01T13:10:24;22.70;;;0.70;;
3817;SDS011;1924;48.078;11.516;2023-02-01T13:13:02;22.70;;;0.70;;
3817;SDS011;1924;48.078;11.516;2023-02-01T13:15:38;22.60;;;0.70;;
3817;SDS011;1924;48.078;11.516;2023-02-01T13:18:10;22.80;;;0.70;;
3817;SDS011;1924;48.078;11.516;2023-02-01T13:20:44;22.77;;;0.70;;
3817;SDS011;1924;48.078;11.516;2023-02-01T13:23:14;22.87;;;0.80;;
3817;SDS011;1924;48.078;11.516;2023-02-01T13:25:49;22.80;;;0.70;;
3817;SDS011;1924;48.078;11.516;2023-02-01T13:28:17;22.60;;;0.70;;
3817;SDS011;1924;48.078;11.516;2023-02-01T13:30:57;22.70;;;0.70;;
3817;SDS011;1924;48.078;11.516;2023-02-01T13:33:49;22.97;;;0.70;;
3817;SDS011;1924;48.078;11.516;2023-02-01T13:36:37;22.80;;;0.70;;
3817;SDS011;1924;48.078;11.516;2023-02-01T13:42:15;22.90;;;0.70;;
3817;SDS011;1924;48.078;11.516;2023-02-01T13:44:47;22.80;;;0.70;;
3817;SDS011;1924;48.078;11.516;2023-02-01T13:47:21;22.80;;;0.70;;
3817;SDS011;1924;48.078;11.516;2023-02-01T13:49:52;22.73;;;0.70;;
3817;SDS011;1924;48.078;11.516;2023-02-01T13:52:28;22.87;;;0.70;;
3817;SDS011;1924;48.078;11.516;2023-02-01T13:55:13;22.70;;;0.70;;
3817;SDS011;1924;48.078;11.516;2023-02-01T13:57:49;22.93;;;0.70;;
3817;SDS011;1924;48.078;11.516;2023-02-01T14:00:25;22.80;;;0.70;;
3817;SDS011;1924;48.078;11.516;2023-02-01T14:11:38;22.80;;;0.70;;
3817;SDS011;1924;48.078;11.516;2023-02-01T14:26:01;22.70;;;0.70;;
3817;SDS011;1924;48.078;11.516;2023-02-01T14:28:48;22.77;;;0.70;;
3817;SDS011;1924;48.078;11.516;2023-02-01T14:31:32;22.70;;;0.70;;
3817;SDS011;1924;48.078;11.516;2023-02-01T14:34:05;22.70;;;0.70;;
3817;SDS011;1924;48.078;11.516;2023-02-01T14:36:40;22.70;;;0.70;;
3817;SDS011;1924;48.078;11.516;2023-02-01T14:39:24;22.83;;;0.70;;
3817;SDS011;1924;48.078;11.516;2023-02-01T14:41:56;22.80;;;0.70;;
3817;SDS011;1924;48.078;11.516;2023-02-01T14:44:29;22.70;;;0.70;;
3817;SDS011;1924;48.078;11.516;2023-02-01T14:49:58;22.70;;;0.70;;
3817;SDS011;1924;48.078;11.516;2023-02-01T14:52:35;22.70;;;0.70;;
3817;SDS011;1924;48.078;11.516;2023-02-01T14:55:11;22.60;;;0.70;;
3817;SDS011;1924;48.078;11.516;2023-02-01T14:57:41;22.70;;;0.70;;
3817;SDS011;1924;48.078;11.516;2023-02-01T15:00:18;22.77;;;0.70;;
3817;SDS011;1924;48.078;11.516;2023-02-01T15:02:48;22.77;;;0.70;;
3817;SDS011;1924;48.078;11.516;2023-02-01T15:05:24;22.70;;;0.70;;
3817;SDS011;1924;48.078;11.516;2023-02-01T15:07:54;22.70;;;0.70;;
3817;SDS011;1924;48.078;11.516;2023-02-01T15:10:24;22.77;;;0.70;;
3817;SDS011;1924;48.078;11.516;2023-02-01T15:12:52;22.70;;;0.70;;
3817;SDS011;1924;48.078;11.516;2023-02-01T15:15:20;22.70;;;0.70;;
3817;SDS011;1924;48.078;11.516;2023-02-01T15:17:49;22.50;;;0.70;;
3817;SDS011;1924;48.078;11.516;2023-02-01T15:20:18;22.63;;;0.70;;
3817;SDS011;1924;48.078;11.516;2023-02-01T15:22:54;22.40;;;0.70;;
3817;SDS011;1924;48.078;11.516;2023-02-01T15:25:24;22.70;;;0.70;;
3817;SDS011;1924;48.078;11.516;2023-02-01T15:27:53;22.67;;;0.70;;
3817;SDS011;1924;48.078;11.516;2023-02-01T15:30:21;22.50;;;0.70;;
3817;SDS011;1924;48.078;11.516;2023-02-01T15:32:51;22.50;;;0.70;;
3817;SDS011;1924;48.078;11.516;2023-02-01T15:35:36;22.60;;;0.70;;
3817;SDS011;1924;48.078;11.516;2023-02-01T15:41:06;22.73;;;0.70;;
3817;SDS011;1924;48.078;11.516;2023-02-01T15:43:36;22.57;;;0.70;;
3817;SDS011;1924;48.078;11.516;2023-02-01T15:46:07;22.40;;;0.70;;
3817;SDS011;1924;48.078;11.516;2023-02-01T15:48:36;22.57;;;0.70;;
3817;SDS011;1924;48.078;11.516;2023-02-01T15:51:11;22.63;;;0.70;;
3817;SDS011;1924;48.078;11.516;2023-02-01T15:53:42;22.60;;;0.70;;
3817;SDS011;1924;48.078;11.516;2023-02-01T15:56:16;22.60;;;0.70;;
3817;SDS011;1924;48.078;11.516;2023-02-01T15:58:50;22.50;;;0.70;;
3817;SDS011;1924;48.078;11.516;2023-02-01T16:01:19;22.40;;;0.70;;
3817;SDS011;1924;48.078;11.516;2023-02-01T16:03:46;22.40;;;0.70;;
3817;SDS011;1924;48.078;11.516;2023-02-01T16:06:26;22.50;;;0.70;;
3817;SDS011;1924;48.078;11.516;2023-02-01T16:08:55;22.40;;;0.70;;
3817;SDS011;1924;48.078;11.516;2023-02-01T16:11:29;22.50;;;0.70;;
3817;SDS011;1924;48.078;11.516;2023-02-01T16:13:57;22.40;;;0.70;;
3817;SDS011;1924;48.078;11.516;2023-02-01T16:16:24;22.47;;;0.70;;
3817;SDS011;1924;48.078;11.516;2023-02-01T16:18:51;22.57;;;0.70;;
3817;SDS011;1924;48.078;11.516;2023-02-01T16:21:18;22.53;;;0.70;;
3817;SDS011;1924;48.078;11.516;2023-02-01T16:23:47;22.40;;;0.70;;
3817;SDS011;1924;48.078;11.516;2023-02-01T16:26:15;22.37;;;0.70;;
3817;SDS011;1924;48.078;11.516;2023-02-01T16:28:43;22.40;;;0.70;;
3817;SDS011;1924;48.078;11.516;2023-02-01T16:31:11;22.50;;;0.70;;
3817;SDS011;1924;48.078;11.516;2023-02-01T16:33:44;22.50;;;0.70;;
3817;SDS011;1924;48.078;11.516;2023-02-01T16:36:12;22.47;;;0.70;;
3817;SDS011;1924;48.078;11.516;2023-02-01T16:38:39;22.20;;;0.70;;
3817;SDS011;1924;48.078;11.516;2023-02-01T16:41:05;22.40;;;0.70;;
3817;SDS011;1924;48.078;11.516;2023-02-01T16:43:33;22.40;;;0.70;;
3817;SDS011;1924;48.078;11.516;2023-02-01T16:46:01;22.47;;;0.70;;
3817;SDS011;1924;48.078;11.516;2023-02-01T16:48:30;22.50;;;0.70;;
3817;SDS011;1924;48.078;11.516;2023-02-01T16:51:00;22.30;;;0.70;;
3817;SDS011;1924;48.078;11.516;2023-02-01T16:53:29;22.40;;;0.70;;
3817;SDS011;1924;48.078;11.516;2023-02-01T16:55:57;22.40;;;0.70;;
3817;SDS011;1924;48.078;11.516;2023-02-01T16:58:24;22.50;;;0.70;;
3817;SDS011;1924;48.078;11.516;2023-02-01T17:00:52;22.30;;;0.70;;
3817;SDS011;1924;48.078;11.516;2023-02-01T17:03:21;22.50;;;0.70;;
3817;SDS011;1924;48.078;11.516;2023-02-01T17:05:49;22.40;;;0.70;;
3817;SDS011;1924;48.078;11.516;2023-02-01T17:08:18;22.47;;;0.70;;
3817;SDS011;1924;48.078;11.516;2023-02-01T17:10:49;22.50;;;0.70;;
3817;SDS011;1924;48.078;11.516;2023-02-01T17:13:16;22.57;;;0.70;;
3817;SDS011;1924;48.078;11.516;2023-02-01T17:15:44;22.50;;;0.70;;
3817;SDS011;1924;48.078;11.516;2023-02-01T17:18:15;22.40;;;0.70;;
3817;SDS011;1924;48.078;11.516;2023-02-01T17:20:44;22.50;;;0.70;;
3817;SDS011;1924;48.078;11.516;2023-02-01T17:23:13;22.47;;;0.70;;
3817;SDS011;1924;48.078;11.516;2023-02-01T17:25:40;22.40;;;0.70;;
3817;SDS011;1924;48.078;11.516;2023-02-01T17:28:07;22.40;;;0.70;;
3817;SDS011;1924;48.078;11.516;2023-02-01T17:30:34;22.50;;;0.70;;
3817;SDS011;1924;48.078;11.516;2023-02-01T17:33:02;22.57;;;0.70;;
3817;SDS011;1924;48.078;11.516;2023-02-01T17:35:30;22.60;;;0.70;;
3817;SDS011;1924;48.078;11.516;2023-02-01T17:37:58;22.57;;;0.70;;
3817;SDS011;1924;48.078;11.516;2023-02-01T17:40:24;22.30;;;0.70;;
3817;SDS011;1924;48.078;11.516;2023-02-01T17:42:53;22.30;;;0.70;;
3817;SDS011;1924;48.078;11.516;2023-02-01T17:45:25;22.43;;;0.70;;
3817;SDS011;1924;48.078;11.516;2023-02-01T17:48:00;22.40;;;0.70;;
3817;SDS011;1924;48.078;11.516;2023-02-01T17:50:27;22.50;;;0.70;;
3817;SDS011;1924;48.078;11.516;2023-02-01T17:52:58;22.70;;;0.70;;
3817;SDS011;1924;48.078;11.516;2023-02-01T17:55:25;22.50;;;0.70;;
3817;SDS011;1924;48.078;11.516;2023-02-01T17:57:52;22.57;;;0.70;;
3817;SDS011;1924;48.078;11.516;2023-02-01T18:00:19;22.53;;;0.70;;
3817;SDS011;1924;48.078;11.516;2023-02-01T18:02:46;22.50;;;0.70;;
3817;SDS011;1924;48.078;11.516;2023-02-01T18:05:14;22.53;;;0.70;;
3817;SDS011;1924;48.078;11.516;2023-02-01T18:07:46;22.47;;;0.70;;
3817;SDS011;1924;48.078;11.516;2023-02-01T18:10:14;22.70;;;0.70;;
3817;SDS011;1924;48.078;11.516;2023-02-01T18:12:43;22.43;;;0.70;;
3817;SDS011;1924;48.078;11.516;2023-02-01T18:15:15;22.70;;;0.70;;
3817;SDS011;1924;48.078;11.516;2023-02-01T18:17:43;22.60;;;0.70;;
3817;SDS011;1924;48.078;11.516;2023-02-01T18:20:13;22.30;;;0.70;;
3817;SDS011;1924;48.078;11.516;2023-02-01T18:22:41;22.60;;;0.70;;
3817;SDS011;1924;48.078;11.516;2023-02-01T18:25:16;22.53;;;0.70;;
3817;SDS011;1924;48.078;11.516;2023-02-01T18:27:45;22.50;;;0.70;;
3817;SDS011;1924;48.078;11.516;2023-02-01T18:30:13;22.30;;;0.70;;
3817;SDS011;1924;48.078;11.516;2023-02-01T18:32:41;22.57;;;0.70;;
3817;SDS011;1924;48.078;11.516;2023-02-01T18:35:16;22.50;;;0.73;;
3817;SDS011;1924;48.078;11.516;2023-02-01T18:37:47;22.30;;;0.70;;
3817;SDS011;1924;48.078;11.516;2023-02-01T18:40:17;22.40;;;0.70;;
3817;SDS011;1924;48.078;11.516;2023-02-01T18:42:44;22.40;;;0.70;;
3817;SDS011;1924;48.078;11.516;2023-02-01T18:45:22;22.40;;;0.80;;
3817;SDS011;1924;48.078;11.516;2023-02-01T18:47:53;22.30;;;0.70;;
3817;SDS011;1924;48.078;11.516;2023-02-01T18:50:20;22.40;;;0.70;;
3817;SDS011;1924;48.078;11.516;2023-02-01T18:52:47;22.47;;;0.70;;
3817;SDS011;1924;48.078;11.516;2023-02-01T18:55:19;22.30;;;0.70;;
3817;SDS011;1924;48.078;11.516;2023-02-01T18:57:47;22.40;;;0.70;;